createdAt,value
2022-08-05T00:02:20.096Z,3.50
2022-08-05T00:04:47.397Z,3.17
2022-08-05T00:07:59.298Z,2.90
2022-08-05T00:10:10.046Z,3.73
2022-08-05T00:12:48.458Z,3.57
2022-08-05T00:15:54.895Z,3.40
2022-08-05T00:18:10.400Z,3.20
2022-08-05T00:20:49.867Z,3.00
2022-08-05T00:23:16.917Z,3.30
2022-08-05T00:25:46.000Z,3.70
2022-08-05T00:28:13.459Z,3.13
2022-08-05T00:30:41.151Z,3.60
2022-08-05T00:34:42.221Z,3.47
2022-08-05T00:36:15.894Z,3.00
2022-08-05T00:38:45.406Z,3.27
2022-08-05T00:41:12.871Z,3.53
2022-08-05T00:43:49.868Z,4.53
2022-08-05T00:46:16.948Z,4.90
2022-08-05T00:49:04.426Z,3.40
2022-08-05T00:51:51.031Z,3.40
2022-08-05T00:54:20.208Z,3.43
2022-08-05T00:56:51.735Z,3.73
2022-08-05T00:59:19.469Z,3.40
2022-08-05T01:01:48.550Z,2.90
2022-08-05T01:04:16.186Z,3.30
2022-08-05T01:06:48.837Z,4.47
2022-08-05T01:09:20.079Z,3.20
2022-08-05T01:11:49.243Z,2.90
2022-08-05T01:14:45.637Z,3.20
2022-08-05T01:17:16.077Z,3.30
2022-08-05T01:20:01.498Z,3.40
2022-08-05T01:22:48.725Z,4.90
2022-08-05T01:25:20.002Z,4.00
2022-08-05T01:28:11.628Z,3.40
2022-08-05T01:30:50.595Z,3.63
2022-08-05T01:33:25.229Z,3.27
2022-08-05T01:35:53.871Z,3.10
2022-08-05T01:38:26.939Z,3.40
2022-08-05T01:40:58.129Z,3.37
2022-08-05T01:43:25.710Z,3.70
2022-08-05T01:45:56.166Z,3.40
2022-08-05T01:48:28.560Z,3.60
2022-08-05T01:50:56.218Z,3.37
2022-08-05T01:53:55.119Z,4.10
2022-08-05T01:56:11.987Z,3.57
2022-08-05T01:58:45.256Z,3.77
2022-08-05T02:01:24.527Z,3.77
2022-08-05T02:03:51.967Z,3.50
2022-08-05T02:06:36.971Z,3.33
2022-08-05T02:09:06.175Z,3.47
2022-08-05T02:11:42.101Z,3.33
2022-08-05T02:14:12.428Z,3.53
2022-08-05T02:16:44.468Z,3.90
2022-08-05T02:19:11.272Z,3.53
2022-08-05T02:21:46.900Z,4.30
2022-08-05T02:24:18.210Z,3.47
2022-08-05T02:26:51.921Z,3.60
2022-08-05T02:29:24.289Z,4.47
2022-08-05T02:32:09.850Z,4.00
2022-08-05T02:34:38.034Z,4.27
2022-08-05T02:37:09.139Z,3.53
2022-08-05T02:39:37.220Z,3.90
2022-08-05T02:42:08.760Z,3.63
2022-08-05T02:44:37.763Z,3.60
2022-08-05T02:47:05.686Z,3.70
2022-08-05T02:49:40.337Z,3.70
2022-08-05T02:52:33.610Z,4.00
2022-08-05T02:55:05.602Z,3.60
2022-08-05T02:58:20.293Z,3.67
2022-08-05T03:00:26.131Z,3.97
2022-08-05T03:02:54.759Z,3.63
2022-08-05T03:06:54.598Z,4.20
2022-08-05T03:08:10.433Z,4.77
2022-08-05T03:10:37.683Z,4.70
2022-08-05T03:13:16.709Z,4.70
2022-08-05T03:15:44.648Z,8.23
2022-08-05T03:18:11.716Z,4.80
2022-08-05T03:20:38.794Z,5.47
2022-08-05T03:23:15.516Z,5.83
2022-08-05T03:26:04.743Z,5.63
2022-08-05T03:28:31.065Z,4.30
2022-08-05T03:30:59.379Z,4.03
2022-08-05T03:33:42.251Z,4.37
2022-08-05T03:36:14.384Z,4.30
2022-08-05T03:38:42.559Z,4.17
2022-08-05T03:41:19.432Z,6.30
2022-08-05T03:44:09.467Z,4.07
2022-08-05T03:46:37.595Z,4.13
2022-08-05T03:49:04.790Z,3.90
2022-08-05T03:52:37.445Z,4.07
2022-08-05T03:55:50.403Z,4.90
2022-08-05T03:57:19.311Z,4.73
2022-08-05T04:00:01.597Z,4.30
2022-08-05T04:02:38.763Z,4.30
2022-08-05T04:05:12.531Z,6.67
2022-08-05T04:07:57.301Z,5.80
2022-08-05T04:10:27.710Z,3.93
2022-08-05T04:12:55.459Z,4.17
2022-08-05T04:15:26.392Z,5.90
2022-08-05T04:17:56.236Z,4.10
2022-08-05T04:20:24.357Z,4.87
2022-08-05T04:22:51.204Z,4.47
2022-08-05T04:25:18.136Z,6.37
2022-08-05T04:27:57.357Z,4.30
2022-08-05T04:30:26.575Z,4.40
2022-08-05T04:32:53.520Z,4.43
2022-08-05T04:35:20.545Z,4.00
2022-08-05T04:38:01.296Z,5.43
2022-08-05T04:40:33.751Z,4.57
2022-08-05T04:43:00.608Z,4.87
2022-08-05T04:45:48.104Z,4.20
2022-08-05T04:48:18.451Z,4.93
2022-08-05T04:51:01.692Z,4.27
2022-08-05T04:53:39.112Z,6.27
2022-08-05T04:56:33.904Z,5.67
2022-08-05T04:58:56.221Z,4.10
2022-08-05T05:01:33.446Z,4.67
2022-08-05T05:04:10.292Z,5.00
2022-08-05T05:06:40.534Z,6.33
2022-08-05T05:09:14.044Z,4.10
2022-08-05T05:11:53.894Z,7.43
2022-08-05T05:14:27.945Z,4.93
2022-08-05T05:16:59.872Z,4.60
2022-08-05T05:19:36.491Z,4.03
2022-08-05T05:22:23.045Z,4.33
2022-08-05T05:24:57.687Z,6.43
2022-08-05T05:27:44.331Z,3.97
2022-08-05T05:30:29.348Z,4.33
2022-08-05T05:33:00.678Z,5.30
2022-08-05T05:35:34.192Z,4.53
2022-08-05T05:38:08.911Z,5.17
2022-08-05T05:40:36.543Z,6.63
2022-08-05T05:43:03.415Z,4.25
2022-08-05T05:45:30.234Z,3.97
2022-08-05T05:48:06.371Z,5.15
2022-08-05T05:50:41.242Z,4.30
2022-08-05T05:53:21.376Z,5.53
2022-08-05T05:56:00.445Z,4.05
2022-08-05T05:58:30.390Z,5.45
2022-08-05T06:01:02.574Z,3.42
2022-08-05T06:04:00.488Z,6.82
2022-08-05T06:06:31.186Z,4.35
2022-08-05T06:09:00.266Z,3.90
2022-08-05T06:11:29.015Z,4.70
2022-08-05T06:13:56.557Z,3.65
2022-08-05T06:16:28.161Z,3.65
2022-08-05T06:19:05.422Z,5.20
2022-08-05T06:21:37.483Z,4.47
2022-08-05T06:24:11.402Z,4.72
2022-08-05T06:26:39.993Z,5.43
2022-08-05T06:29:25.248Z,3.42
2022-08-05T06:32:05.846Z,4.40
2022-08-05T06:34:48.526Z,5.50
2022-08-05T06:37:55.773Z,4.60
2022-08-05T06:40:07.712Z,5.40
2022-08-05T06:42:34.549Z,6.23
2022-08-05T06:45:06.475Z,5.00
2022-08-05T06:48:44.119Z,5.03
2022-08-05T06:50:22.771Z,3.77
2022-08-05T06:52:58.590Z,6.37
2022-08-05T06:55:30.580Z,8.13
2022-08-05T06:58:20.242Z,4.17
2022-08-05T07:00:50.803Z,4.47
2022-08-05T07:03:18.137Z,7.07
2022-08-05T07:05:46.362Z,3.10
2022-08-05T07:08:13.543Z,4.53
2022-08-05T07:10:52.555Z,4.77
2022-08-05T07:13:56.981Z,5.23
2022-08-05T07:17:56.390Z,4.10
2022-08-05T07:22:29.064Z,4.73
2022-08-05T07:25:53.829Z,3.63
2022-08-05T07:27:57.639Z,4.87
2022-08-05T07:30:32.621Z,3.33
2022-08-05T07:33:01.094Z,4.17
2022-08-05T07:36:02.711Z,5.53
2022-08-05T07:38:33.357Z,3.03
2022-08-05T07:42:09.499Z,3.10
2022-08-05T07:43:51.723Z,3.97
2022-08-05T07:46:25.517Z,4.43
2022-08-05T07:49:04.076Z,3.70
2022-08-05T07:51:40.407Z,5.23
2022-08-05T07:54:15.954Z,3.87
2022-08-05T07:57:01.641Z,2.50
2022-08-05T07:59:40.167Z,2.40
2022-08-05T08:02:16.202Z,2.47
2022-08-05T08:04:48.570Z,3.85
2022-08-05T08:07:18.414Z,4.38
2022-08-05T08:09:50.056Z,3.63
2022-08-05T08:12:37.350Z,2.55
2022-08-05T08:15:15.782Z,2.78
2022-08-05T08:17:49.647Z,4.03
2022-08-05T08:21:00.107Z,2.55
2022-08-05T08:23:59.819Z,4.15
2022-08-05T08:26:00.826Z,3.40
2022-08-05T08:28:35.681Z,3.20
2022-08-05T08:31:07.482Z,3.13
2022-08-05T08:33:38.052Z,3.07
2022-08-05T08:36:38.279Z,3.93
2022-08-05T08:38:55.726Z,4.43
2022-08-05T08:41:26.185Z,4.72
2022-08-05T08:45:22.583Z,4.80
2022-08-05T08:47:02.485Z,4.30
2022-08-05T08:50:13.194Z,3.22
2022-08-05T08:52:19.699Z,3.13
2022-08-05T08:54:47.957Z,4.18
2022-08-05T08:57:14.849Z,4.10
2022-08-05T08:59:47.093Z,3.97
2022-08-05T09:02:17.335Z,2.55
2022-08-05T09:04:57.892Z,3.15
2022-08-05T09:07:40.022Z,4.38
2022-08-05T09:10:19.175Z,3.75
2022-08-05T09:12:51.029Z,2.63
2022-08-05T09:15:20.310Z,3.30
2022-08-05T09:17:49.434Z,3.58
2022-08-05T09:20:36.729Z,4.53
2022-08-05T09:23:18.952Z,4.70
2022-08-05T09:26:01.166Z,4.07
2022-08-05T09:28:31.458Z,5.80
2022-08-05T09:32:38.594Z,2.55
2022-08-05T09:34:01.064Z,3.25
2022-08-05T09:36:54.115Z,2.90
2022-08-05T09:39:27.644Z,3.78
2022-08-05T09:42:08.729Z,2.30
2022-08-05T09:44:41.845Z,2.53
2022-08-05T09:47:14.185Z,2.58
2022-08-05T09:50:01.226Z,2.42
2022-08-05T09:52:30.092Z,2.40
2022-08-05T09:54:56.888Z,2.20
2022-08-05T09:57:30.873Z,4.05
2022-08-05T10:00:07.865Z,2.38
2022-08-05T10:02:36.702Z,2.22
2022-08-05T10:05:08.007Z,1.60
2022-08-05T10:08:10.723Z,2.20
2022-08-05T10:10:36.823Z,1.70
2022-08-05T10:13:09.988Z,2.28
2022-08-05T10:15:41.396Z,1.75
2022-08-05T10:18:13.093Z,1.60
2022-08-05T10:20:42.745Z,1.73
2022-08-05T10:23:34.062Z,1.63
2022-08-05T10:26:01.821Z,1.80
2022-08-05T10:28:30.548Z,2.60
2022-08-05T10:32:47.374Z,2.08
2022-08-05T10:33:45.397Z,2.22
2022-08-05T10:36:23.569Z,2.53
2022-08-05T10:38:58.516Z,1.75
2022-08-05T10:41:44.978Z,1.95
2022-08-05T10:44:17.080Z,1.73
2022-08-05T10:46:51.130Z,1.63
2022-08-05T10:49:27.367Z,1.88
2022-08-05T10:52:05.007Z,1.65
2022-08-05T10:54:56.219Z,2.30
2022-08-05T10:57:32.367Z,1.88
2022-08-05T11:00:17.867Z,1.60
2022-08-05T11:03:25.915Z,1.55
2022-08-05T11:06:05.802Z,1.90
2022-08-05T11:08:38.045Z,1.77
2022-08-05T11:11:24.919Z,1.60
2022-08-05T11:14:10.737Z,1.48
2022-08-05T11:16:55.920Z,2.67
2022-08-05T11:20:10.224Z,1.45
2022-08-05T11:22:37.943Z,1.58
2022-08-05T11:26:05.450Z,1.50
2022-08-05T11:28:17.257Z,1.40
2022-08-05T11:31:02.496Z,1.50
2022-08-05T11:33:34.611Z,1.60
2022-08-05T11:36:14.903Z,1.63
2022-08-05T11:38:45.387Z,2.25
2022-08-05T11:41:54.673Z,1.60
2022-08-05T11:44:12.359Z,1.73
2022-08-05T11:47:11.726Z,2.75
2022-08-05T11:49:37.137Z,1.77
2022-08-05T11:52:11.166Z,1.95
2022-08-05T11:54:40.624Z,1.70
2022-08-05T11:57:25.529Z,1.88
2022-08-05T11:59:53.363Z,1.65
2022-08-05T12:02:31.633Z,1.60
2022-08-05T12:05:07.947Z,1.80
2022-08-05T12:08:08.338Z,1.65
2022-08-05T12:10:43.363Z,1.65
2022-08-05T12:13:17.113Z,1.80
2022-08-05T12:15:56.026Z,1.80
2022-08-05T12:18:33.367Z,1.85
2022-08-05T12:21:10.810Z,3.67
2022-08-05T12:23:43.145Z,2.42
2022-08-05T12:26:10.289Z,1.70
2022-08-05T12:28:37.885Z,2.22
2022-08-05T12:31:05.205Z,1.50
2022-08-05T12:33:37.080Z,1.70
2022-08-05T12:36:07.937Z,2.40
2022-08-05T12:38:37.086Z,2.15
2022-08-05T12:41:12.444Z,2.58
2022-08-05T12:43:56.810Z,2.05
2022-08-05T12:46:28.816Z,1.73
2022-08-05T12:49:13.644Z,1.90
2022-08-05T12:52:12.686Z,2.50
2022-08-05T12:54:35.725Z,2.17
2022-08-05T12:57:09.401Z,1.67
2022-08-05T13:01:58.608Z,1.80
2022-08-05T13:02:41.891Z,1.80
2022-08-05T13:05:12.541Z,1.52
2022-08-05T13:08:00.706Z,1.88
2022-08-05T13:10:31.097Z,2.83
2022-08-05T13:12:58.591Z,1.85
2022-08-05T13:15:36.101Z,1.60
2022-08-05T13:18:09.442Z,1.70
2022-08-05T13:20:40.528Z,2.08
2022-08-05T13:23:08.617Z,1.95
2022-08-05T13:25:52.412Z,2.03
2022-08-05T13:28:22.691Z,3.50
2022-08-05T13:30:53.137Z,1.70
2022-08-05T13:34:21.985Z,1.73
2022-08-05T13:36:09.081Z,2.13
2022-08-05T13:38:42.370Z,1.90
2022-08-05T13:41:10.892Z,2.10
2022-08-05T13:43:44.188Z,1.70
2022-08-05T13:49:12.640Z,3.03
2022-08-05T13:51:41.544Z,1.92
2022-08-05T13:54:15.234Z,2.40
2022-08-05T13:56:45.389Z,4.65
2022-08-05T13:59:19.950Z,2.65
2022-08-05T14:01:59.235Z,2.38
2022-08-05T14:04:49.422Z,2.33
2022-08-05T14:07:25.623Z,2.40
2022-08-05T14:10:11.124Z,2.10
2022-08-05T14:12:38.001Z,2.20
2022-08-05T14:16:05.573Z,1.90
2022-08-05T14:17:59.450Z,2.22
2022-08-05T14:20:27.754Z,2.08
2022-08-05T14:22:54.688Z,1.85
2022-08-05T14:25:27.936Z,3.05
2022-08-05T14:27:55.692Z,2.88
2022-08-05T14:30:22.798Z,2.20
2022-08-05T14:32:53.739Z,3.58
2022-08-05T14:35:22.915Z,2.20
2022-08-05T14:37:54.970Z,1.95
2022-08-05T14:40:24.272Z,2.75
2022-08-05T14:42:52.167Z,2.15
2022-08-05T14:45:19.062Z,3.65
2022-08-05T14:48:03.976Z,2.75
2022-08-05T14:50:33.331Z,2.10
2022-08-05T14:53:06.813Z,1.80
2022-08-05T14:55:39.242Z,2.28
2022-08-05T14:58:11.389Z,1.92
2022-08-05T15:00:59.407Z,3.15
2022-08-05T15:03:27.785Z,2.42
2022-08-05T15:06:06.812Z,1.80
2022-08-05T15:08:58.156Z,3.95
2022-08-05T15:11:22.889Z,2.25
2022-08-05T15:14:09.929Z,3.90
2022-08-05T15:16:36.812Z,5.30
2022-08-05T15:19:04.440Z,4.22
2022-08-05T15:21:31.363Z,2.65
2022-08-05T15:24:02.191Z,3.90
2022-08-05T15:26:32.053Z,3.80
2022-08-05T15:29:00.332Z,4.75
2022-08-05T15:31:34.481Z,2.38
2022-08-05T15:34:18.776Z,2.22
2022-08-05T15:36:49.067Z,3.28
2022-08-05T15:40:58.967Z,2.75
2022-08-05T15:42:49.792Z,2.55
2022-08-05T15:44:50.342Z,2.10
2022-08-05T15:47:17.298Z,2.75
2022-08-05T15:49:56.705Z,2.05
2022-08-05T15:52:51.549Z,2.15
2022-08-05T15:55:16.058Z,2.20
2022-08-05T15:57:43.495Z,1.98
2022-08-05T16:00:12.290Z,2.90
2022-08-05T16:02:43.827Z,1.90
2022-08-05T16:05:11.227Z,2.25
2022-08-05T16:07:38.155Z,1.98
2022-08-05T16:10:13.239Z,2.55
2022-08-05T16:12:40.101Z,2.25
2022-08-05T16:15:07.167Z,2.50
2022-08-05T16:17:36.351Z,2.03
2022-08-05T16:20:11.044Z,2.00
2022-08-05T16:22:39.078Z,2.08
2022-08-05T16:25:09.730Z,3.33
2022-08-05T16:28:00.093Z,2.17
2022-08-05T16:30:26.229Z,3.22
2022-08-05T16:32:55.515Z,3.22
2022-08-05T16:35:27.848Z,2.47
2022-08-05T16:38:15.554Z,2.97
2022-08-05T16:40:51.731Z,2.80
2022-08-05T16:43:23.903Z,2.50
2022-08-05T16:46:04.549Z,3.37
2022-08-05T16:48:37.616Z,4.13
2022-08-05T16:51:09.937Z,3.57
2022-08-05T16:54:05.025Z,2.40
2022-08-05T16:56:29.191Z,2.90
2022-08-05T16:58:57.051Z,3.40
2022-08-05T17:01:24.562Z,3.20
2022-08-05T17:03:52.001Z,3.53
2022-08-05T17:06:19.320Z,4.43
2022-08-05T17:08:52.423Z,3.07
2022-08-05T17:11:23.876Z,3.00
2022-08-05T17:14:00.469Z,2.53
2022-08-05T17:16:36.640Z,5.27
2022-08-05T17:19:07.853Z,2.77
2022-08-05T17:21:37.318Z,2.60
2022-08-05T17:24:18.470Z,2.83
2022-08-05T17:26:52.540Z,3.67
2022-08-05T17:29:22.464Z,2.60
2022-08-05T17:31:59.837Z,3.97
2022-08-05T17:34:29.743Z,4.23
2022-08-05T17:36:58.949Z,4.00
2022-08-05T17:39:33.465Z,2.73
2022-08-05T17:42:28.553Z,3.03
2022-08-05T17:44:52.827Z,2.83
2022-08-05T17:47:22.086Z,3.43
2022-08-05T17:50:04.133Z,2.80
2022-08-05T17:52:52.577Z,4.10
2022-08-05T17:55:20.740Z,4.53
2022-08-05T17:57:50.063Z,2.97
2022-08-05T18:00:17.431Z,3.73
2022-08-05T18:02:47.210Z,3.83
2022-08-05T18:05:17.654Z,3.20
2022-08-05T18:07:44.799Z,4.10
2022-08-05T18:10:14.039Z,4.07
2022-08-05T18:12:48.744Z,3.17
2022-08-05T18:15:15.567Z,3.27
2022-08-05T18:18:01.118Z,3.53
2022-08-05T18:20:31.626Z,4.70
2022-08-05T18:23:08.749Z,3.43
2022-08-05T18:25:39.127Z,3.40
2022-08-05T18:28:06.763Z,3.63
2022-08-05T18:30:33.973Z,3.80
2022-08-05T18:33:01.484Z,3.57
2022-08-05T18:36:01.398Z,3.23
2022-08-05T18:38:19.115Z,3.47
2022-08-05T18:41:56.952Z,3.63
2022-08-05T18:43:38.118Z,4.40
2022-08-05T18:46:09.748Z,5.07
2022-08-05T18:48:41.821Z,3.87
2022-08-05T18:52:06.453Z,4.13
2022-08-05T18:54:14.900Z,4.83
2022-08-05T18:56:51.135Z,3.80
2022-08-05T18:59:43.995Z,4.57
2022-08-05T19:02:26.299Z,5.63
2022-08-05T19:05:02.042Z,5.20
2022-08-05T19:07:45.541Z,5.03
2022-08-05T19:10:17.293Z,5.27
2022-08-05T19:12:46.037Z,4.80
2022-08-05T19:15:58.784Z,4.90
2022-08-05T19:18:10.446Z,4.20
2022-08-05T19:20:46.825Z,3.73
2022-08-05T19:24:04.286Z,4.30
2022-08-05T19:26:04.613Z,3.47
2022-08-05T19:28:35.431Z,4.70
2022-08-05T19:31:04.953Z,4.70
2022-08-05T19:33:36.794Z,4.60
2022-08-05T19:36:07.333Z,4.57
2022-08-05T19:38:36.499Z,4.60
2022-08-05T19:41:06.735Z,4.90
2022-08-05T19:44:07.072Z,5.97
2022-08-05T19:46:29.763Z,6.07
2022-08-05T19:49:04.205Z,5.33
2022-08-05T19:52:05.732Z,5.90
2022-08-05T19:54:25.419Z,5.13
2022-08-05T19:56:53.983Z,6.03
2022-08-05T19:59:56.617Z,5.40
2022-08-05T20:02:08.165Z,6.40
2022-08-05T20:04:35.005Z,7.17
2022-08-05T20:07:02.056Z,6.30
2022-08-05T20:09:28.943Z,5.93
2022-08-05T20:12:15.747Z,6.47
2022-08-05T20:14:49.324Z,7.33
2022-08-05T20:17:19.896Z,8.77
2022-08-05T20:19:51.023Z,6.70
2022-08-05T20:22:24.970Z,7.10
2022-08-05T20:24:53.908Z,7.13
2022-08-05T20:27:21.058Z,6.13
2022-08-05T20:29:58.581Z,8.20
2022-08-05T20:32:26.810Z,8.00
2022-08-05T20:34:54.342Z,7.97
2022-08-05T20:38:04.909Z,8.50
2022-08-05T20:40:08.742Z,7.73
2022-08-05T20:42:35.715Z,8.37
2022-08-05T20:45:02.827Z,8.80
2022-08-05T20:47:31.722Z,8.00
2022-08-05T20:49:59.489Z,9.10
2022-08-05T20:52:26.500Z,8.00
2022-08-05T20:54:59.656Z,8.60
2022-08-05T20:57:43.347Z,7.73
2022-08-05T21:00:40.431Z,8.07
2022-08-05T21:03:04.532Z,8.17
2022-08-05T21:05:47.556Z,8.30
2022-08-05T21:08:20.345Z,8.87
2022-08-05T21:10:48.891Z,9.87
2022-08-05T21:13:26.469Z,16.20
2022-08-05T21:16:03.699Z,10.30
2022-08-05T21:18:30.769Z,9.00
2022-08-05T21:20:57.603Z,8.80
2022-08-05T21:23:25.009Z,9.33
2022-08-05T21:25:51.884Z,10.27
2022-08-05T21:28:23.905Z,8.27
2022-08-05T21:30:50.883Z,9.60
2022-08-05T21:33:21.899Z,10.83
2022-08-05T21:35:58.356Z,10.50
2022-08-05T21:38:26.087Z,10.73
2022-08-05T21:40:53.001Z,9.00
2022-08-05T21:43:24.626Z,9.30
2022-08-05T21:45:57.844Z,10.80
2022-08-05T21:48:27.916Z,9.60
2022-08-05T21:50:55.376Z,9.53
2022-08-05T21:53:27.313Z,12.13
2022-08-05T21:56:05.078Z,9.50
2022-08-05T21:58:33.469Z,9.47
2022-08-05T22:01:00.524Z,8.73
2022-08-05T22:03:52.752Z,10.57
2022-08-05T22:06:15.179Z,8.67
2022-08-05T22:08:42.440Z,9.73
2022-08-05T22:11:12.053Z,9.17
2022-08-05T22:14:32.604Z,10.47
2022-08-05T22:16:41.846Z,10.23
2022-08-05T22:20:01.751Z,9.03
2022-08-05T22:22:03.362Z,10.47
2022-08-05T22:24:52.470Z,10.03
2022-08-05T22:28:09.438Z,8.90
2022-08-05T22:30:32.445Z,9.70
2022-08-05T22:33:02.923Z,8.63
2022-08-05T22:35:38.653Z,9.47
2022-08-05T22:38:15.115Z,7.97
2022-08-05T22:40:42.138Z,9.60
2022-08-05T22:43:36.555Z,8.80
2022-08-05T22:46:12.298Z,8.93
2022-08-05T22:48:40.380Z,8.70
2022-08-05T22:51:07.963Z,10.07
2022-08-05T22:53:42.569Z,10.63
2022-08-05T22:56:17.224Z,9.00
2022-08-05T22:58:58.601Z,9.60
2022-08-05T23:01:50.828Z,9.63
2022-08-05T23:04:14.007Z,9.23
2022-08-05T23:06:41.447Z,8.03
2022-08-05T23:09:14.689Z,7.77
2022-08-05T23:11:54.961Z,7.73
2022-08-05T23:14:22.594Z,8.20
2022-08-05T23:17:08.424Z,7.10
2022-08-05T23:19:46.615Z,7.33
2022-08-05T23:22:19.287Z,6.87
2022-08-05T23:24:54.448Z,6.90
2022-08-05T23:27:21.280Z,6.83
2022-08-05T23:29:50.563Z,5.83
2022-08-05T23:32:17.657Z,6.53
2022-08-05T23:34:49.844Z,6.20
2022-08-05T23:37:18.166Z,5.43
2022-08-05T23:39:54.204Z,7.40
2022-08-05T23:42:23.608Z,5.57
2022-08-05T23:44:57.072Z,5.53
2022-08-05T23:47:25.137Z,4.57
2022-08-05T23:49:55.641Z,4.30
2022-08-05T23:52:27.554Z,4.27
2022-08-05T23:54:55.909Z,4.10
2022-08-05T23:57:22.964Z,3.73
